EAG5510 SPHY-SBRB
Flight info
| Callsign | EAG5510 |
|---|---|
| Flight time | 1h 3m |
| Altitude | 37000 |
| Route | URC DCT GRAFO |
| Aircraft | A319/M-SDE3FGHIRWY/LB1 |
Departure
| Time | 2026-05-05 00:19 |
|---|---|
| Airport | Andahuaylas Airport (SPHY) |
Arrival
| Time | 2026-05-05 01:22 |
|---|---|
| Airport | Rio Branco-Plácido de Castro International Airport (SBRB) |
| Time | Latitude | Longitude | Altitude | Speed | Heading |
|---|---|---|---|---|---|
| 2026-05-04 23:41 | -13.71298 | -73.35280 | 11640 ft | 0 kts | 128° |
| 2026-05-04 23:43 | -13.71297 | -73.35280 | 11640 ft | 0 kts | 128° |
| 2026-05-04 23:56 | -13.71289 | -73.35291 | 11640 ft | 2 kts | 128° |
| 2026-05-04 23:56 | -13.71279 | -73.35304 | 11638 ft | 2 kts | 124° |
| 2026-05-04 23:57 | -13.71271 | -73.35319 | 11638 ft | 2 kts | 74° |
| 2026-05-04 23:57 | -13.71277 | -73.35329 | 11639 ft | 1 kts | 31° |
| 2026-05-04 23:57 | -13.71278 | -73.35330 | 11639 ft | 0 kts | 31° |
| 2026-05-05 00:02 | -13.71278 | -73.35329 | 11639 ft | 0 kts | 31° |
| 2026-05-05 00:02 | -13.71270 | -73.35324 | 11638 ft | 4 kts | 33° |
| 2026-05-05 00:03 | -13.71255 | -73.35314 | 11639 ft | 0 kts | 33° |
| 2026-05-05 00:03 | -13.71251 | -73.35311 | 11637 ft | 2 kts | 33° |
| 2026-05-05 00:03 | -13.71235 | -73.35305 | 11642 ft | 2 kts | 0° |
| 2026-05-05 00:04 | -13.71215 | -73.35318 | 11644 ft | 6 kts | 311° |
| 2026-05-05 00:04 | -13.71226 | -73.35361 | 11639 ft | 8 kts | 220° |
| 2026-05-05 00:04 | -13.71275 | -73.35393 | 11642 ft | 9 kts | 212° |
| 2026-05-05 00:04 | -13.71341 | -73.35436 | 11634 ft | 14 kts | 212° |
| 2026-05-05 00:05 | -13.71443 | -73.35501 | 11627 ft | 21 kts | 212° |
| 2026-05-05 00:05 | -13.71580 | -73.35589 | 11615 ft | 26 kts | 212° |
| 2026-05-05 00:05 | -13.71736 | -73.35688 | 11604 ft | 19 kts | 212° |
| 2026-05-05 00:05 | -13.71829 | -73.35764 | 11602 ft | 12 kts | 212° |
| 2026-05-05 00:06 | -13.71829 | -73.35746 | 11598 ft | 4 kts | 28° |
| 2026-05-05 00:06 | -13.71814 | -73.35737 | 11599 ft | 0 kts | 32° |
| 2026-05-05 00:18 | -13.71812 | -73.35736 | 11602 ft | 5 kts | 32° |
| 2026-05-05 00:18 | -13.71556 | -73.35573 | 11616 ft | 82 kts | 32° |
| 2026-05-05 00:18 | -13.70873 | -73.35136 | 11638 ft | 148 kts | 32° |
| 2026-05-05 00:19 | -13.69872 | -73.34518 | 11904 ft | 183 kts | 29° |
| 2026-05-05 00:19 | -13.68752 | -73.33815 | 12490 ft | 189 kts | 31° |
| 2026-05-05 00:19 | -13.67649 | -73.33101 | 13016 ft | 186 kts | 32° |
| 2026-05-05 00:19 | -13.66775 | -73.32074 | 13263 ft | 207 kts | 71° |
| 2026-05-05 00:20 | -13.66678 | -73.30526 | 13434 ft | 229 kts | 92° |
| 2026-05-05 00:20 | -13.66728 | -73.28806 | 13597 ft | 252 kts | 90° |
| 2026-05-05 00:20 | -13.66741 | -73.26921 | 13885 ft | 270 kts | 87° |
| 2026-05-05 00:20 | -13.66401 | -73.25064 | 14791 ft | 263 kts | 71° |
| 2026-05-05 00:21 | -13.65997 | -73.23199 | 15366 ft | 275 kts | 85° |
| 2026-05-05 00:21 | -13.66009 | -73.21147 | 15645 ft | 299 kts | 94° |
| 2026-05-05 00:21 | -13.66207 | -73.18933 | 15889 ft | 323 kts | 95° |
| 2026-05-05 00:21 | -13.66425 | -73.16556 | 16069 ft | 346 kts | 94° |
| 2026-05-05 00:22 | -13.66589 | -73.14013 | 16201 ft | 368 kts | 92° |
| 2026-05-05 00:22 | -13.66676 | -73.11305 | 16363 ft | 387 kts | 91° |
| 2026-05-05 00:22 | -13.66692 | -73.08501 | 16828 ft | 395 kts | 90° |
| 2026-05-05 00:22 | -13.66664 | -73.05658 | 17454 ft | 399 kts | 89° |
| 2026-05-05 00:23 | -13.66617 | -73.02793 | 18091 ft | 403 kts | 89° |
| 2026-05-05 00:23 | -13.66568 | -72.99896 | 18722 ft | 406 kts | 89° |
| 2026-05-05 00:23 | -13.66524 | -72.96987 | 19267 ft | 409 kts | 89° |
| 2026-05-05 00:23 | -13.66487 | -72.94048 | 19793 ft | 412 kts | 89° |
| 2026-05-05 00:24 | -13.66458 | -72.91091 | 20309 ft | 416 kts | 89° |
| 2026-05-05 00:24 | -13.66431 | -72.88102 | 20782 ft | 419 kts | 89° |
| 2026-05-05 00:24 | -13.66406 | -72.85095 | 21250 ft | 422 kts | 89° |
| 2026-05-05 00:24 | -13.66380 | -72.82063 | 21716 ft | 426 kts | 89° |
| 2026-05-05 00:25 | -13.66353 | -72.79010 | 22193 ft | 429 kts | 89° |
| 2026-05-05 00:25 | -13.66328 | -72.75925 | 22662 ft | 432 kts | 89° |
| 2026-05-05 00:25 | -13.66303 | -72.72831 | 23115 ft | 435 kts | 89° |
| 2026-05-05 00:25 | -13.66276 | -72.69709 | 23569 ft | 438 kts | 89° |
| 2026-05-05 00:26 | -13.66245 | -72.66566 | 23967 ft | 442 kts | 89° |
| 2026-05-05 00:26 | -13.66211 | -72.63399 | 24332 ft | 444 kts | 89° |
| 2026-05-05 00:26 | -13.66178 | -72.60210 | 24693 ft | 447 kts | 89° |
| 2026-05-05 00:26 | -13.66144 | -72.57000 | 25059 ft | 450 kts | 89° |
| 2026-05-05 00:27 | -13.66106 | -72.53770 | 25413 ft | 453 kts | 89° |
| 2026-05-05 00:27 | -13.66070 | -72.50520 | 25761 ft | 456 kts | 89° |
| 2026-05-05 00:27 | -13.66038 | -72.47241 | 26097 ft | 460 kts | 89° |
| 2026-05-05 00:27 | -13.66008 | -72.43948 | 26420 ft | 463 kts | 88° |
| 2026-05-05 00:28 | -13.65974 | -72.40632 | 26747 ft | 466 kts | 88° |
| 2026-05-05 00:28 | -13.65935 | -72.37287 | 27044 ft | 469 kts | 88° |
| 2026-05-05 00:28 | -13.65895 | -72.33930 | 27370 ft | 472 kts | 88° |
| 2026-05-05 00:28 | -13.65855 | -72.30546 | 27686 ft | 475 kts | 88° |
| 2026-05-05 00:29 | -13.65816 | -72.27144 | 28018 ft | 478 kts | 88° |
| 2026-05-05 00:29 | -13.65778 | -72.23713 | 28359 ft | 480 kts | 88° |
| 2026-05-05 00:29 | -13.65738 | -72.20274 | 28694 ft | 483 kts | 88° |
| 2026-05-05 00:29 | -13.65697 | -72.16816 | 29034 ft | 486 kts | 88° |
| 2026-05-05 00:30 | -13.65655 | -72.13338 | 29444 ft | 487 kts | 88° |
| 2026-05-05 00:30 | -13.65610 | -72.09862 | 29933 ft | 486 kts | 88° |
| 2026-05-05 00:30 | -13.65567 | -72.06380 | 30424 ft | 486 kts | 88° |
| 2026-05-05 00:30 | -13.65526 | -72.02908 | 30850 ft | 486 kts | 88° |
| 2026-05-05 00:31 | -13.65486 | -71.99437 | 31264 ft | 485 kts | 88° |
| 2026-05-05 00:31 | -13.65445 | -71.95969 | 31692 ft | 485 kts | 88° |
| 2026-05-05 00:31 | -13.65404 | -71.92500 | 32094 ft | 484 kts | 87° |
| 2026-05-05 00:31 | -13.65359 | -71.89042 | 32503 ft | 484 kts | 87° |
| 2026-05-05 00:32 | -13.65311 | -71.85586 | 32911 ft | 483 kts | 87° |
| 2026-05-05 00:32 | -13.65263 | -71.82137 | 33314 ft | 483 kts | 87° |
| 2026-05-05 00:32 | -13.65215 | -71.78687 | 33720 ft | 482 kts | 86° |
| 2026-05-05 00:32 | -13.65167 | -71.75243 | 34119 ft | 482 kts | 86° |
| 2026-05-05 00:33 | -13.65120 | -71.71802 | 34520 ft | 481 kts | 86° |
| 2026-05-05 00:33 | -13.65071 | -71.68366 | 34885 ft | 480 kts | 86° |
| 2026-05-05 00:33 | -13.65000 | -71.64935 | 35251 ft | 479 kts | 84° |
| 2026-05-05 00:33 | -13.64524 | -71.61558 | 35620 ft | 476 kts | 74° |
| 2026-05-05 00:34 | -13.63523 | -71.58339 | 35983 ft | 472 kts | 64° |
| 2026-05-05 00:34 | -13.62037 | -71.55356 | 36371 ft | 468 kts | 55° |
| 2026-05-05 00:34 | -13.60121 | -71.52671 | 36729 ft | 464 kts | 47° |
| 2026-05-05 00:34 | -13.58080 | -71.50152 | 37055 ft | 465 kts | 47° |
| 2026-05-05 00:35 | -13.55983 | -71.47564 | 37200 ft | 466 kts | 47° |
| 2026-05-05 00:35 | -13.51873 | -71.42481 | 37228 ft | 465 kts | 48° |
| 2026-05-05 00:36 | -13.47745 | -71.37366 | 37225 ft | 465 kts | 47° |
| 2026-05-05 00:36 | -13.43613 | -71.32258 | 37212 ft | 465 kts | 47° |
| 2026-05-05 00:37 | -13.39480 | -71.27154 | 37198 ft | 464 kts | 47° |
| 2026-05-05 00:37 | -13.35345 | -71.22051 | 37174 ft | 464 kts | 47° |
| 2026-05-05 00:38 | -13.31206 | -71.16948 | 37139 ft | 466 kts | 47° |
| 2026-05-05 00:38 | -13.27048 | -71.11810 | 37111 ft | 469 kts | 48° |
| 2026-05-05 00:39 | -13.22863 | -71.06649 | 37091 ft | 471 kts | 47° |
| 2026-05-05 00:39 | -13.18652 | -71.01470 | 37066 ft | 473 kts | 47° |
| 2026-05-05 00:40 | -13.14427 | -70.96287 | 37054 ft | 474 kts | 47° |
| 2026-05-05 00:40 | -13.10208 | -70.91089 | 37046 ft | 474 kts | 47° |
| 2026-05-05 00:41 | -13.06016 | -70.85926 | 37024 ft | 474 kts | 47° |
| 2026-05-05 00:41 | -13.01794 | -70.80735 | 37017 ft | 474 kts | 47° |
| 2026-05-05 00:42 | -12.97571 | -70.75539 | 37013 ft | 474 kts | 47° |
| 2026-05-05 00:42 | -12.93343 | -70.70359 | 37006 ft | 474 kts | 47° |
| 2026-05-05 00:43 | -12.89117 | -70.65186 | 36995 ft | 473 kts | 47° |
| 2026-05-05 00:43 | -12.84893 | -70.60007 | 36989 ft | 473 kts | 48° |
| 2026-05-05 00:44 | -12.81387 | -70.55703 | 36985 ft | 473 kts | 48° |
| 2026-05-05 00:44 | -12.77167 | -70.50534 | 36981 ft | 473 kts | 48° |
| 2026-05-05 00:45 | -12.72948 | -70.45364 | 36980 ft | 473 kts | 48° |
| 2026-05-05 00:45 | -12.68721 | -70.40207 | 36975 ft | 472 kts | 47° |
| 2026-05-05 00:46 | -12.63783 | -70.34180 | 36975 ft | 472 kts | 48° |
| 2026-05-05 00:46 | -12.60277 | -70.29893 | 36975 ft | 472 kts | 48° |
| 2026-05-05 00:47 | -12.56064 | -70.24739 | 36976 ft | 472 kts | 48° |
| 2026-05-05 00:47 | -12.51861 | -70.19589 | 36980 ft | 471 kts | 48° |
| 2026-05-05 00:48 | -12.47656 | -70.14452 | 36978 ft | 471 kts | 48° |
| 2026-05-05 00:48 | -12.43448 | -70.09328 | 36980 ft | 470 kts | 47° |
| 2026-05-05 00:49 | -12.39236 | -70.04219 | 36980 ft | 469 kts | 47° |
| 2026-05-05 00:49 | -12.35063 | -69.99134 | 36982 ft | 469 kts | 48° |
| 2026-05-05 00:50 | -12.30878 | -69.94018 | 36981 ft | 468 kts | 48° |
| 2026-05-05 00:50 | -12.26690 | -69.88919 | 36981 ft | 468 kts | 47° |
| 2026-05-05 00:51 | -12.22498 | -69.83836 | 36983 ft | 468 kts | 47° |
| 2026-05-05 00:51 | -12.18305 | -69.78754 | 36985 ft | 467 kts | 47° |
| 2026-05-05 00:52 | -12.14123 | -69.73675 | 36982 ft | 467 kts | 48° |
| 2026-05-05 00:52 | -12.09943 | -69.68586 | 36982 ft | 467 kts | 48° |
| 2026-05-05 00:53 | -12.05772 | -69.63509 | 36981 ft | 467 kts | 48° |
| 2026-05-05 00:53 | -12.01578 | -69.58431 | 36980 ft | 467 kts | 48° |
| 2026-05-05 00:54 | -11.97387 | -69.53363 | 36973 ft | 467 kts | 48° |
| 2026-05-05 00:54 | -11.93195 | -69.48295 | 36979 ft | 467 kts | 48° |
| 2026-05-05 00:55 | -11.89001 | -69.43216 | 36979 ft | 468 kts | 48° |
| 2026-05-05 00:55 | -11.84811 | -69.38133 | 36982 ft | 468 kts | 48° |
| 2026-05-05 00:56 | -11.80609 | -69.33048 | 36980 ft | 468 kts | 48° |
| 2026-05-05 00:56 | -11.76404 | -69.27970 | 36984 ft | 469 kts | 48° |
| 2026-05-05 00:57 | -11.72196 | -69.22889 | 36986 ft | 469 kts | 48° |
| 2026-05-05 00:57 | -11.67981 | -69.17805 | 36986 ft | 469 kts | 48° |
| 2026-05-05 00:58 | -11.63762 | -69.12716 | 36983 ft | 470 kts | 48° |
| 2026-05-05 00:58 | -11.59544 | -69.07619 | 36985 ft | 470 kts | 48° |
| 2026-05-05 00:59 | -11.55347 | -69.02562 | 36986 ft | 470 kts | 48° |
| 2026-05-05 00:59 | -11.51121 | -68.97465 | 36982 ft | 471 kts | 48° |
| 2026-05-05 01:00 | -11.46896 | -68.92366 | 36986 ft | 471 kts | 48° |
| 2026-05-05 01:00 | -11.42659 | -68.87265 | 36984 ft | 471 kts | 48° |
| 2026-05-05 01:01 | -11.38420 | -68.82175 | 36988 ft | 471 kts | 48° |
| 2026-05-05 01:01 | -11.34181 | -68.77081 | 36991 ft | 471 kts | 48° |
| 2026-05-05 01:02 | -11.29946 | -68.71997 | 36985 ft | 471 kts | 48° |
| 2026-05-05 01:02 | -11.25710 | -68.66906 | 36989 ft | 471 kts | 48° |
| 2026-05-05 01:03 | -11.21481 | -68.61817 | 36984 ft | 471 kts | 48° |
| 2026-05-05 01:03 | -11.17244 | -68.56727 | 36986 ft | 471 kts | 48° |
| 2026-05-05 01:04 | -11.13007 | -68.51649 | 36991 ft | 471 kts | 48° |
| 2026-05-05 01:04 | -11.06664 | -68.44044 | 37001 ft | 468 kts | 48° |
| 2026-05-05 01:05 | -11.04559 | -68.41521 | 36310 ft | 467 kts | 48° |
| 2026-05-05 01:05 | -11.02440 | -68.38986 | 35299 ft | 473 kts | 48° |
| 2026-05-05 01:05 | -11.00290 | -68.36417 | 34302 ft | 480 kts | 48° |
| 2026-05-05 01:05 | -10.98117 | -68.33817 | 33462 ft | 482 kts | 49° |
| 2026-05-05 01:06 | -10.95955 | -68.31227 | 32244 ft | 480 kts | 49° |
| 2026-05-05 01:06 | -10.93794 | -68.28638 | 31040 ft | 478 kts | 49° |
| 2026-05-05 01:06 | -10.91649 | -68.26072 | 29867 ft | 475 kts | 49° |
| 2026-05-05 01:06 | -10.89513 | -68.23519 | 28560 ft | 472 kts | 50° |
| 2026-05-05 01:07 | -10.87397 | -68.20990 | 27315 ft | 467 kts | 50° |
| 2026-05-05 01:07 | -10.85304 | -68.18487 | 26135 ft | 461 kts | 50° |
| 2026-05-05 01:07 | -10.83245 | -68.16022 | 25029 ft | 455 kts | 50° |
| 2026-05-05 01:07 | -10.81196 | -68.13571 | 23967 ft | 455 kts | 51° |
| 2026-05-05 01:08 | -10.79157 | -68.11131 | 22812 ft | 449 kts | 51° |
| 2026-05-05 01:08 | -10.77150 | -68.08733 | 21634 ft | 442 kts | 50° |
| 2026-05-05 01:08 | -10.75180 | -68.06374 | 20518 ft | 434 kts | 50° |
| 2026-05-05 01:08 | -10.73244 | -68.04055 | 19464 ft | 427 kts | 50° |
| 2026-05-05 01:09 | -10.71332 | -68.01770 | 18458 ft | 420 kts | 50° |
| 2026-05-05 01:09 | -10.69452 | -67.99530 | 17424 ft | 413 kts | 50° |
| 2026-05-05 01:09 | -10.67436 | -67.97459 | 16622 ft | 414 kts | 40° |
| 2026-05-05 01:09 | -10.65027 | -67.95850 | 15822 ft | 416 kts | 28° |
| 2026-05-05 01:10 | -10.62323 | -67.94794 | 15030 ft | 419 kts | 16° |
| 2026-05-05 01:10 | -10.59437 | -67.94348 | 14229 ft | 422 kts | 4° |
| 2026-05-05 01:10 | -10.56495 | -67.94542 | 13381 ft | 425 kts | 353° |
| 2026-05-05 01:10 | -10.53568 | -67.94991 | 12640 ft | 423 kts | 352° |
| 2026-05-05 01:11 | -10.50714 | -67.95429 | 11792 ft | 417 kts | 352° |
| 2026-05-05 01:11 | -10.47830 | -67.95868 | 11244 ft | 406 kts | 352° |
| 2026-05-05 01:11 | -10.45105 | -67.96280 | 11126 ft | 386 kts | 352° |
| 2026-05-05 01:11 | -10.42547 | -67.96664 | 11009 ft | 367 kts | 352° |
| 2026-05-05 01:12 | -10.40080 | -67.97036 | 10890 ft | 351 kts | 352° |
| 2026-05-05 01:12 | -10.37718 | -67.97395 | 10769 ft | 336 kts | 352° |
| 2026-05-05 01:12 | -10.35448 | -67.97740 | 10660 ft | 324 kts | 352° |
| 2026-05-05 01:12 | -10.33263 | -67.98071 | 10541 ft | 312 kts | 352° |
| 2026-05-05 01:13 | -10.31146 | -67.98394 | 10383 ft | 304 kts | 352° |
| 2026-05-05 01:13 | -10.29070 | -67.98710 | 10222 ft | 299 kts | 352° |
| 2026-05-05 01:13 | -10.27015 | -67.99020 | 10127 ft | 298 kts | 352° |
| 2026-05-05 01:13 | -10.24966 | -67.99329 | 9996 ft | 297 kts | 352° |
| 2026-05-05 01:14 | -10.22904 | -67.99639 | 9361 ft | 301 kts | 352° |
| 2026-05-05 01:14 | -10.20851 | -67.99946 | 8810 ft | 296 kts | 352° |
| 2026-05-05 01:14 | -10.18825 | -68.00251 | 8224 ft | 293 kts | 352° |
| 2026-05-05 01:14 | -10.16823 | -68.00556 | 7664 ft | 290 kts | 352° |
| 2026-05-05 01:15 | -10.14833 | -68.00861 | 7021 ft | 289 kts | 352° |
| 2026-05-05 01:15 | -10.12856 | -68.01161 | 6560 ft | 282 kts | 352° |
| 2026-05-05 01:15 | -10.10974 | -68.01445 | 6385 ft | 264 kts | 352° |
| 2026-05-05 01:15 | -10.09220 | -68.01710 | 6258 ft | 246 kts | 352° |
| 2026-05-05 01:16 | -10.07583 | -68.01957 | 6146 ft | 230 kts | 352° |
| 2026-05-05 01:16 | -10.06057 | -68.02196 | 6042 ft | 215 kts | 351° |
| 2026-05-05 01:16 | -10.04601 | -68.02495 | 5642 ft | 214 kts | 348° |
| 2026-05-05 01:16 | -10.03140 | -68.02834 | 5148 ft | 215 kts | 347° |
| 2026-05-05 01:17 | -10.01685 | -68.03179 | 4721 ft | 215 kts | 347° |
| 2026-05-05 01:17 | -10.00220 | -68.03526 | 4295 ft | 216 kts | 347° |
| 2026-05-05 01:17 | -9.98761 | -68.03830 | 3952 ft | 212 kts | 354° |
| 2026-05-05 01:17 | -9.97310 | -68.03697 | 3670 ft | 206 kts | 15° |
| 2026-05-05 01:18 | -9.96064 | -68.03102 | 3466 ft | 193 kts | 34° |
| 2026-05-05 01:18 | -9.95119 | -68.02195 | 3265 ft | 183 kts | 51° |
| 2026-05-05 01:18 | -9.94440 | -68.01160 | 3053 ft | 166 kts | 56° |
| 2026-05-05 01:18 | -9.93846 | -68.00235 | 2845 ft | 148 kts | 55° |
| 2026-05-05 01:19 | -9.93307 | -67.99393 | 2666 ft | 138 kts | 54° |
| 2026-05-05 01:19 | -9.92794 | -67.98591 | 2489 ft | 134 kts | 54° |
| 2026-05-05 01:19 | -9.92288 | -67.97803 | 2324 ft | 132 kts | 54° |
| 2026-05-05 01:19 | -9.91788 | -67.97022 | 2154 ft | 132 kts | 53° |
| 2026-05-05 01:20 | -9.91290 | -67.96244 | 1986 ft | 131 kts | 54° |
| 2026-05-05 01:20 | -9.90793 | -67.95469 | 1816 ft | 131 kts | 53° |
| 2026-05-05 01:20 | -9.90297 | -67.94693 | 1652 ft | 131 kts | 53° |
| 2026-05-05 01:20 | -9.89801 | -67.93919 | 1479 ft | 131 kts | 54° |
| 2026-05-05 01:21 | -9.89304 | -67.93143 | 1320 ft | 131 kts | 56° |
| 2026-05-05 01:21 | -9.88805 | -67.92367 | 1152 ft | 131 kts | 56° |
| 2026-05-05 01:21 | -9.88307 | -67.91591 | 986 ft | 131 kts | 57° |
| 2026-05-05 01:21 | -9.87811 | -67.90821 | 819 ft | 130 kts | 57° |
| 2026-05-05 01:22 | -9.87321 | -67.90052 | 658 ft | 128 kts | 57° |
| 2026-05-05 01:22 | -9.86987 | -67.89522 | 641 ft | 33 kts | 57° |
| 2026-05-05 01:22 | -9.86876 | -67.89349 | 629 ft | 30 kts | 57° |
| 2026-05-05 01:22 | -9.86792 | -67.89268 | 622 ft | 13 kts | 345° |
| 2026-05-05 01:23 | -9.86766 | -67.89332 | 629 ft | 9 kts | 284° |
| 2026-05-05 01:23 | -9.86752 | -67.89393 | 631 ft | 9 kts | 283° |
| 2026-05-05 01:23 | -9.86737 | -67.89464 | 631 ft | 11 kts | 281° |
| 2026-05-05 01:23 | -9.86721 | -67.89536 | 632 ft | 8 kts | 285° |
| 2026-05-05 01:24 | -9.86730 | -67.89596 | 629 ft | 10 kts | 238° |
| 2026-05-05 01:24 | -9.86757 | -67.89651 | 626 ft | 8 kts | 253° |
| 2026-05-05 01:24 | -9.86772 | -67.89689 | 634 ft | 2 kts | 274° |
| 2026-05-05 01:24 | -9.86757 | -67.89698 | 626 ft | 3 kts | 330° |
| 2026-05-05 01:25 | -9.86734 | -67.89708 | 628 ft | 3 kts | 333° |
| 2026-05-05 01:25 | -9.86723 | -67.89715 | 635 ft | 0 kts | 328° |